Time;durP1;ratioP1;P1;durP2;ratioP2;P2;SDS_P1;SDS_P2;PMS_P1;PMS_P2;Temp;Humidity;BMP_temperature;BMP_pressure;BME280_temperature;BME280_humidity;BME280_pressure;Samples;Min_cycle;Max_cycle;Signal;HPM_P1;HPM_P2
2023/06/04 00:01:56;;;;;;;2.35;0.85;;;;;;;;;;5061318;28;43190;-29
2023/06/04 00:04:25;;;;;;;2.83;0.80;;;;;;;;;;5050290;28;45296;-29
2023/06/04 00:06:54;;;;;;;4.00;1.02;;;;;;;;;;5049582;28;42468;-29
2023/06/04 00:09:22;;;;;;;3.72;1.00;;;;;;;;;;5050113;28;43676;-29
2023/06/04 00:11:50;;;;;;;2.05;0.93;;;;;;;;;;5048108;28;39625;-29
2023/06/04 00:14:19;;;;;;;1.85;0.82;;;;;;;;;;5046084;28;42539;-29
2023/06/04 00:16:47;;;;;;;2.85;0.75;;;;;;;;;;5049653;28;43157;-29
2023/06/04 00:19:15;;;;;;;2.95;1.02;;;;;;;;;;5050044;28;40122;-35
2023/06/04 00:21:43;;;;;;;5.70;1.35;;;;;;;;;;5048055;28;43015;-31
2023/06/04 00:24:12;;;;;;;1.95;0.90;;;;;;;;;;5049036;28;44481;-32
2023/06/04 00:26:40;;;;;;;12.88;1.10;;;;;;;;;;5050051;28;40783;-32
2023/06/04 00:29:08;;;;;;;4.00;0.80;;;;;;;;;;5047538;28;44451;-32
2023/06/04 00:31:38;;;;;;;1.42;0.90;;;;;;;;;;5049697;28;40361;-31
2023/06/04 00:34:06;;;;;;;4.32;0.75;;;;;;;;;;5048517;28;43144;-31
2023/06/04 00:36:33;;;;;;;2.83;0.88;;;;;;;;;;5049488;28;43310;-36
2023/06/04 00:39:01;;;;;;;2.80;0.80;;;;;;;;;;5047162;28;39722;-34
2023/06/04 00:41:29;;;;;;;1.88;0.93;;;;;;;;;;5050694;28;42902;-31
2023/06/04 00:43:57;;;;;;;3.45;1.13;;;;;;;;;;5048381;28;44129;-31
2023/06/04 00:46:26;;;;;;;2.00;1.00;;;;;;;;;;5049426;28;40950;-34
2023/06/04 00:48:56;;;;;;;1.95;0.90;;;;;;;;;;5046769;28;41291;-31
2023/06/04 00:51:24;;;;;;;2.20;1.00;;;;;;;;;;5049295;28;40797;-31
2023/06/04 00:53:52;;;;;;;3.22;0.80;;;;;;;;;;5048912;28;43255;-34
2023/06/04 00:56:20;;;;;;;1.40;0.82;;;;;;;;;;5060718;28;43952;-32
2023/06/04 00:58:48;;;;;;;3.22;0.82;;;;;;;;;;5064912;28;39875;-33
2023/06/04 01:01:17;;;;;;;1.90;1.08;;;;;;;;;;5068266;28;43205;-32
2023/06/04 01:03:46;;;;;;;1.98;0.90;;;;;;;;;;5068361;28;44338;-30
2023/06/04 01:06:20;;;;;;;3.50;0.98;;;;;;;;;;5068380;28;40348;-33
2023/06/04 01:08:50;;;;;;;0.82;0.65;;;;;;;;;;5067985;28;41362;-31
2023/06/04 01:11:17;;;;;;;3.55;0.82;;;;;;;;;;5068112;28;41292;-32
2023/06/04 01:13:45;;;;;;;1.80;0.90;;;;;;;;;;5083622;28;43746;-33
2023/06/04 01:16:15;;;;;;;1.40;0.90;;;;;;;;;;5081694;28;43916;-29
2023/06/04 01:18:44;;;;;;;3.67;0.90;;;;;;;;;;5089247;28;41376;-32
2023/06/04 01:21:12;;;;;;;1.88;0.93;;;;;;;;;;5088251;28;42938;-30
2023/06/04 01:23:46;;;;;;;2.75;1.05;;;;;;;;;;5070037;28;41794;-30
2023/06/04 01:26:14;;;;;;;1.88;0.88;;;;;;;;;;5088673;28;40340;-30
2023/06/04 01:28:41;;;;;;;1.48;0.80;;;;;;;;;;5088555;28;43684;-30
2023/06/04 01:31:09;;;;;;;3.25;0.88;;;;;;;;;;5069411;28;42008;-30
2023/06/04 01:33:38;;;;;;;3.58;0.88;;;;;;;;;;5069678;28;41019;-32
2023/06/04 01:36:10;;;;;;;3.63;0.80;;;;;;;;;;5088601;28;43578;-27
2023/06/04 01:38:38;;;;;;;5.00;0.88;;;;;;;;;;5088025;28;40942;-28
2023/06/04 01:41:07;;;;;;;2.83;0.90;;;;;;;;;;5088315;28;43643;-28
2023/06/04 01:43:35;;;;;;;1.02;0.75;;;;;;;;;;5088954;28;43720;-28
2023/06/04 01:46:06;;;;;;;1.88;1.00;;;;;;;;;;5088636;28;39814;-28
2023/06/04 01:48:34;;;;;;;0.90;0.75;;;;;;;;;;5089355;28;42664;-28
2023/06/04 01:51:02;;;;;;;1.33;0.77;;;;;;;;;;5070042;28;42678;-27
2023/06/04 01:53:31;;;;;;;2.03;0.98;;;;;;;;;;5088503;28;40345;-27
2023/06/04 01:55:59;;;;;;;1.48;0.70;;;;;;;;;;5088284;28;43032;-28
2023/06/04 01:58:29;;;;;;;1.10;0.65;;;;;;;;;;5057040;28;38816;-31
2023/06/04 02:01:00;;;;;;;1.30;0.88;;;;;;;;;;5067021;28;42281;-28
2023/06/04 02:03:28;;;;;;;1.52;0.80;;;;;;;;;;5071794;28;42376;-28
2023/06/04 02:05:56;;;;;;;1.42;0.90;;;;;;;;;;5069486;28;38887;-27
2023/06/04 02:08:25;;;;;;;1.65;0.73;;;;;;;;;;5069906;28;42349;-28
2023/06/04 02:10:53;;;;;;;2.45;0.77;;;;;;;;;;5070164;28;42044;-28
2023/06/04 02:13:21;;;;;;;1.00;0.80;;;;;;;;;;5067865;28;38716;-27
2023/06/04 02:15:50;;;;;;;1.83;0.90;;;;;;;;;;5055808;28;41092;-27
2023/06/04 02:18:21;;;;;;;1.17;1.08;;;;;;;;;;5068109;28;41310;-28
2023/06/04 02:20:49;;;;;;;1.60;0.85;;;;;;;;;;5085938;28;42797;-28
2023/06/04 02:23:18;;;;;;;2.45;0.93;;;;;;;;;;5082157;28;43441;-28
2023/06/04 02:25:46;;;;;;;1.58;0.88;;;;;;;;;;5080434;28;40852;-29
2023/06/04 02:28:14;;;;;;;1.52;0.80;;;;;;;;;;5078730;28;42598;-28
2023/06/04 02:30:42;;;;;;;3.28;0.85;;;;;;;;;;5081461;28;43383;-27
2023/06/04 02:33:11;;;;;;;1.83;0.85;;;;;;;;;;5073671;28;41188;-28
2023/06/04 02:35:39;;;;;;;2.65;0.75;;;;;;;;;;5087696;28;42688;-27
2023/06/04 02:38:07;;;;;;;1.75;0.90;;;;;;;;;;5069152;28;41728;-28
2023/06/04 02:40:35;;;;;;;1.70;0.80;;;;;;;;;;5086806;28;43039;-27
2023/06/04 02:43:03;;;;;;;1.67;0.90;;;;;;;;;;5069090;28;41239;-27
2023/06/04 02:45:31;;;;;;;1.20;0.65;;;;;;;;;;5088086;28;40594;-29
2023/06/04 02:47:59;;;;;;;1.70;1.02;;;;;;;;;;5087450;28;42136;-27
2023/06/04 02:50:28;;;;;;;3.20;0.90;;;;;;;;;;5073681;28;43220;-27
2023/06/04 02:52:56;;;;;;;2.13;0.93;;;;;;;;;;5087970;28;40219;-30
2023/06/04 02:55:24;;;;;;;1.35;0.70;;;;;;;;;;5087138;28;42767;-29
2023/06/04 02:57:52;;;;;;;1.60;0.82;;;;;;;;;;5084916;28;44101;-29
2023/06/04 03:00:20;;;;;;;1.85;0.90;;;;;;;;;;5087342;28;41505;-28
2023/06/04 03:02:48;;;;;;;1.13;0.73;;;;;;;;;;5068848;28;41727;-27
2023/06/04 03:05:17;;;;;;;1.75;0.82;;;;;;;;;;5086975;28;41383;-27
2023/06/04 03:07:47;;;;;;;3.97;1.23;;;;;;;;;;5088131;28;42731;-27
2023/06/04 03:10:15;;;;;;;2.30;0.77;;;;;;;;;;5086737;28;43347;-28
2023/06/04 03:12:44;;;;;;;1.15;0.70;;;;;;;;;;5073113;28;43047;-34
2023/06/04 03:15:12;;;;;;;0.85;0.70;;;;;;;;;;5087286;28;43727;-27
2023/06/04 03:17:40;;;;;;;2.60;0.90;;;;;;;;;;5087044;28;43486;-28
2023/06/04 03:20:09;;;;;;;1.73;0.80;;;;;;;;;;5083888;28;40482;-27
2023/06/04 03:22:37;;;;;;;1.52;0.80;;;;;;;;;;5052382;28;41934;-28
2023/06/04 03:25:07;;;;;;;1.38;0.90;;;;;;;;;;5067027;28;41355;-27
2023/06/04 03:27:35;;;;;;;1.42;0.90;;;;;;;;;;5064359;28;41351;-27
2023/06/04 03:30:05;;;;;;;2.20;0.90;;;;;;;;;;5067856;28;42219;-28
2023/06/04 03:32:52;;;;;;;1.10;0.68;;;;;;;;;;5068099;28;40244;-29
2023/06/04 03:35:20;;;;;;;2.05;0.88;;;;;;;;;;5069033;28;41077;-28
2023/06/04 03:37:48;;;;;;;0.88;0.70;;;;;;;;;;5068712;28;43429;-27
2023/06/04 03:40:17;;;;;;;1.83;0.82;;;;;;;;;;5068143;28;38947;-27
2023/06/04 03:42:47;;;;;;;1.00;0.80;;;;;;;;;;5068884;28;41577;-27
2023/06/04 03:45:17;;;;;;;0.93;0.70;;;;;;;;;;5067393;28;40193;-27
2023/06/04 03:47:46;;;;;;;1.65;1.00;;;;;;;;;;5087498;28;42715;-27
2023/06/04 03:50:14;;;;;;;3.03;0.80;;;;;;;;;;5058617;28;42383;-28
2023/06/04 03:52:43;;;;;;;1.40;1.00;;;;;;;;;;5067993;28;40307;-27
2023/06/04 03:55:11;;;;;;;2.00;0.90;;;;;;;;;;5068498;28;41678;-27
2023/06/04 03:57:42;;;;;;;2.47;1.00;;;;;;;;;;5087604;28;44003;-28
2023/06/04 04:00:13;;;;;;;2.70;1.10;;;;;;;;;;5085780;28;40917;-28
2023/06/04 04:02:41;;;;;;;1.42;0.95;;;;;;;;;;5087723;28;42637;-28
2023/06/04 04:05:16;;;;;;;1.08;0.90;;;;;;;;;;5067784;28;41884;-28
2023/06/04 04:07:47;;;;;;;3.63;1.00;;;;;;;;;;5068580;28;41932;-28
2023/06/04 04:10:17;;;;;;;1.67;0.82;;;;;;;;;;5083647;28;43395;-27
2023/06/04 04:12:47;;;;;;;2.00;0.93;;;;;;;;;;5067243;28;38946;-31
2023/06/04 04:15:16;;;;;;;1.25;0.90;;;;;;;;;;5067079;28;42410;-33
2023/06/04 04:17:44;;;;;;;1.73;0.95;;;;;;;;;;5068385;28;42556;-31
2023/06/04 04:20:13;;;;;;;1.80;1.10;;;;;;;;;;5085105;28;41037;-30
2023/06/04 04:22:48;;;;;;;2.15;1.20;;;;;;;;;;5064342;28;42287;-29
2023/06/04 04:25:19;;;;;;;1.73;0.93;;;;;;;;;;5058424;28;41783;-33
2023/06/04 04:27:49;;;;;;;1.17;1.00;;;;;;;;;;5068081;28;41809;-30
2023/06/04 04:30:17;;;;;;;1.15;0.73;;;;;;;;;;5085886;28;44485;-30
2023/06/04 04:32:49;;;;;;;1.30;1.00;;;;;;;;;;5068138;28;40142;-31
2023/06/04 04:35:23;;;;;;;2.10;0.90;;;;;;;;;;5067960;28;41248;-31
2023/06/04 04:37:54;;;;;;;1.67;0.80;;;;;;;;;;5071383;28;42212;-31
2023/06/04 04:40:23;;;;;;;1.80;0.90;;;;;;;;;;5070231;28;39682;-30
2023/06/04 04:42:53;;;;;;;1.35;0.75;;;;;;;;;;5071559;28;43332;-27
2023/06/04 04:45:22;;;;;;;3.17;1.02;;;;;;;;;;5070763;28;42008;-28
2023/06/04 04:47:52;;;;;;;1.85;0.93;;;;;;;;;;5070749;28;38590;-27
2023/06/04 04:50:20;;;;;;;1.83;0.82;;;;;;;;;;5059297;28;41140;-28
2023/06/04 04:52:49;;;;;;;3.15;1.02;;;;;;;;;;5071067;28;41745;-26
2023/06/04 04:55:17;;;;;;;1.58;0.93;;;;;;;;;;5055941;28;41156;-27
2023/06/04 04:57:47;;;;;;;2.55;1.10;;;;;;;;;;5070702;28;41851;-28
2023/06/04 05:00:19;;;;;;;1.25;0.95;;;;;;;;;;5070373;28;41153;-28
2023/06/04 05:02:50;;;;;;;2.10;1.02;;;;;;;;;;5070161;28;41085;-27
2023/06/04 05:05:18;;;;;;;1.63;1.00;;;;;;;;;;5070308;28;41442;-27
2023/06/04 05:07:48;;;;;;;1.70;0.95;;;;;;;;;;5071142;28;39797;-27
2023/06/04 05:10:17;;;;;;;1.25;0.80;;;;;;;;;;5088520;28;42811;-27
2023/06/04 05:12:51;;;;;;;1.95;1.10;;;;;;;;;;5070210;28;32127;-27
2023/06/04 05:15:21;;;;;;;1.75;1.15;;;;;;;;;;5069746;28;41622;-28
2023/06/04 05:17:52;;;;;;;2.45;1.25;;;;;;;;;;5071052;28;43061;-27
2023/06/04 05:20:21;;;;;;;5.15;0.88;;;;;;;;;;5052114;28;38724;-27
2023/06/04 05:22:49;;;;;;;1.83;0.90;;;;;;;;;;5068683;28;42435;-27
2023/06/04 05:25:19;;;;;;;2.65;1.05;;;;;;;;;;5060364;28;42431;-27
2023/06/04 05:27:49;;;;;;;2.35;1.05;;;;;;;;;;5088737;28;41341;-27
2023/06/04 05:30:18;;;;;;;1.67;1.02;;;;;;;;;;5069313;28;42066;-30
2023/06/04 05:32:47;;;;;;;2.90;1.40;;;;;;;;;;5070601;28;42811;-27
2023/06/04 05:35:16;;;;;;;3.05;0.95;;;;;;;;;;5069706;28;41083;-27
2023/06/04 05:37:45;;;;;;;2.40;1.13;;;;;;;;;;5069405;28;43150;-26
2023/06/04 05:40:15;;;;;;;2.78;1.10;;;;;;;;;;5069413;28;41483;-28
2023/06/04 05:42:44;;;;;;;3.53;1.13;;;;;;;;;;5070075;28;41338;-27
2023/06/04 05:45:12;;;;;;;2.30;1.00;;;;;;;;;;5069195;28;42056;-26
2023/06/04 05:47:41;;;;;;;1.80;1.17;;;;;;;;;;5070120;28;39547;-27
2023/06/04 05:50:12;;;;;;;2.22;1.02;;;;;;;;;;5054883;28;41713;-28
2023/06/04 05:52:41;;;;;;;3.53;1.08;;;;;;;;;;5087185;28;44055;-27
2023/06/04 05:55:12;;;;;;;4.55;0.98;;;;;;;;;;5070523;28;38845;-27
2023/06/04 05:57:40;;;;;;;4.10;1.20;;;;;;;;;;5069527;28;44898;-28
2023/06/04 06:00:10;;;;;;;1.75;1.23;;;;;;;;;;5069331;28;38930;-28
2023/06/04 06:02:41;;;;;;;1.65;1.23;;;;;;;;;;5068197;28;43868;-28
2023/06/04 06:05:23;;;;;;;3.65;1.27;;;;;;;;;;5063640;28;43243;-35
2023/06/04 06:07:51;;;;;;;2.78;1.27;;;;;;;;;;5067924;28;40314;-28
2023/06/04 06:10:19;;;;;;;3.03;1.20;;;;;;;;;;5067915;28;42557;-27
2023/06/04 06:12:47;;;;;;;2.55;1.25;;;;;;;;;;5048130;28;43446;-27
2023/06/04 06:15:15;;;;;;;3.33;1.30;;;;;;;;;;5067540;28;41601;-27
2023/06/04 06:17:45;;;;;;;4.47;1.35;;;;;;;;;;5049536;28;41404;-27
2023/06/04 06:20:17;;;;;;;1.90;1.02;;;;;;;;;;5048286;28;38889;-27
2023/06/04 06:22:48;;;;;;;8.00;1.52;;;;;;;;;;5049406;28;42234;-27
2023/06/04 06:25:18;;;;;;;11.38;2.00;;;;;;;;;;5059552;28;43155;-28
2023/06/04 06:27:52;;;;;;;8.75;1.58;;;;;;;;;;5068310;28;39435;-28
2023/06/04 06:30:22;;;;;;;5.60;1.70;;;;;;;;;;5069631;28;41181;-28
2023/06/04 06:32:50;;;;;;;10.77;2.05;;;;;;;;;;5086981;28;44024;-28
2023/06/04 06:35:22;;;;;;;16.73;2.10;;;;;;;;;;5085152;28;40250;-28
2023/06/04 06:37:51;;;;;;;10.27;1.98;;;;;;;;;;5069389;28;41759;-28
2023/06/04 06:40:20;;;;;;;7.97;1.33;;;;;;;;;;5087221;28;43208;-31
2023/06/04 06:42:49;;;;;;;6.70;1.95;;;;;;;;;;5087601;28;43587;-32
2023/06/04 06:45:16;;;;;;;10.95;1.67;;;;;;;;;;5087505;28;43362;-27
2023/06/04 06:47:45;;;;;;;7.53;1.65;;;;;;;;;;5085324;28;40286;-29
2023/06/04 06:50:12;;;;;;;3.85;1.70;;;;;;;;;;5082851;28;42628;-27
2023/06/04 06:52:40;;;;;;;8.68;1.70;;;;;;;;;;5085161;28;43166;-28
2023/06/04 06:55:10;;;;;;;5.32;1.58;;;;;;;;;;5065624;28;40863;-29
2023/06/04 06:57:38;;;;;;;6.43;1.75;;;;;;;;;;5067157;28;42136;-31
2023/06/04 07:00:07;;;;;;;3.33;1.65;;;;;;;;;;5065761;28;42853;-30
2023/06/04 07:02:35;;;;;;;7.00;1.65;;;;;;;;;;5066875;28;40129;-31
2023/06/04 07:05:03;;;;;;;6.93;1.60;;;;;;;;;;5048399;28;41839;-30
2023/06/04 07:07:31;;;;;;;6.15;1.70;;;;;;;;;;5067532;28;39625;-30
2023/06/04 07:09:58;;;;;;;2.10;1.50;;;;;;;;;;5065957;28;43554;-30
2023/06/04 07:12:28;;;;;;;3.83;1.63;;;;;;;;;;5065398;28;43190;-30
2023/06/04 07:14:56;;;;;;;5.65;1.65;;;;;;;;;;5065671;28;40837;-31
2023/06/04 07:17:24;;;;;;;4.97;1.70;;;;;;;;;;5066224;28;42667;-30
2023/06/04 07:19:52;;;;;;;10.05;1.70;;;;;;;;;;5066870;28;44421;-32
2023/06/04 07:22:20;;;;;;;5.40;1.70;;;;;;;;;;5067253;28;40073;-31
2023/06/04 07:24:47;;;;;;;7.85;1.50;;;;;;;;;;5067930;28;44916;-30
2023/06/04 07:27:15;;;;;;;4.95;1.40;;;;;;;;;;5065822;28;40580;-29
2023/06/04 07:29:45;;;;;;;10.30;1.80;;;;;;;;;;5065947;28;42593;-30
2023/06/04 07:32:13;;;;;;;4.80;1.90;;;;;;;;;;5066220;28;43361;-30
2023/06/04 07:34:41;;;;;;;11.80;1.60;;;;;;;;;;5066495;28;41338;-31
2023/06/04 07:37:10;;;;;;;4.93;1.60;;;;;;;;;;5065799;28;42297;-30
2023/06/04 07:39:38;;;;;;;3.38;1.27;;;;;;;;;;5066341;28;42772;-31
2023/06/04 07:42:07;;;;;;;5.90;1.58;;;;;;;;;;5067060;28;40180;-31
2023/06/04 07:44:35;;;;;;;4.95;1.60;;;;;;;;;;5065070;28;42600;-32
2023/06/04 07:47:05;;;;;;;6.45;1.33;;;;;;;;;;5066653;28;40301;-31
2023/06/04 07:49:33;;;;;;;4.30;1.52;;;;;;;;;;5070140;28;42608;-30
2023/06/04 07:52:01;;;;;;;7.03;1.42;;;;;;;;;;5068162;28;43238;-31
2023/06/04 07:54:29;;;;;;;5.57;1.83;;;;;;;;;;5066286;28;40319;-30
2023/06/04 07:56:58;;;;;;;6.82;1.48;;;;;;;;;;5065279;28;43282;-31
2023/06/04 07:59:25;;;;;;;6.03;1.60;;;;;;;;;;5066559;28;43192;-31
2023/06/04 08:01:53;;;;;;;9.20;1.60;;;;;;;;;;5048871;28;40186;-30
2023/06/04 08:04:23;;;;;;;6.28;1.42;;;;;;;;;;5066043;28;42252;-31
2023/06/04 08:06:51;;;;;;;2.33;1.20;;;;;;;;;;5066269;28;44524;-30
2023/06/04 08:09:19;;;;;;;7.97;1.70;;;;;;;;;;5066023;28;42439;-32
2023/06/04 08:11:47;;;;;;;2.30;1.33;;;;;;;;;;5066665;28;43421;-30
2023/06/04 08:14:15;;;;;;;7.40;1.50;;;;;;;;;;5069115;28;40780;-29
2023/06/04 08:16:43;;;;;;;5.68;1.70;;;;;;;;;;5069782;28;43322;-30
2023/06/04 08:19:11;;;;;;;4.40;1.30;;;;;;;;;;5068551;28;43257;-29
2023/06/04 08:21:41;;;;;;;6.35;1.33;;;;;;;;;;5069966;28;40076;-28
2023/06/04 08:24:09;;;;;;;3.25;1.40;;;;;;;;;;5066825;28;42837;-28
2023/06/04 08:26:37;;;;;;;3.75;1.60;;;;;;;;;;5086263;28;43984;-29
2023/06/04 08:29:05;;;;;;;5.82;1.67;;;;;;;;;;5069277;28;39844;-28
2023/06/04 08:31:33;;;;;;;5.53;1.95;;;;;;;;;;5069421;28;43273;-24
2023/06/04 08:34:05;;;;;;;8.77;2.10;;;;;;;;;;5067920;28;40553;-26
2023/06/04 08:36:33;;;;;;;7.05;1.52;;;;;;;;;;5069642;28;42339;-24
2023/06/04 08:39:02;;;;;;;9.23;1.90;;;;;;;;;;5069222;28;43371;-26
2023/06/04 08:41:33;;;;;;;10.65;1.85;;;;;;;;;;5070792;28;39909;-25
2023/06/04 08:44:02;;;;;;;6.75;1.33;;;;;;;;;;5066175;28;43665;-24
2023/06/04 08:46:30;;;;;;;4.10;1.52;;;;;;;;;;5068220;28;43366;-27
2023/06/04 08:49:00;;;;;;;5.53;1.40;;;;;;;;;;5071959;28;40424;-25
2023/06/04 08:51:28;;;;;;;5.80;1.70;;;;;;;;;;5070124;28;43057;-26
2023/06/04 08:53:57;;;;;;;8.25;1.98;;;;;;;;;;5068056;28;40196;-24
2023/06/04 08:56:28;;;;;;;4.47;1.33;;;;;;;;;;5068490;28;42622;-27
2023/06/04 08:58:56;;;;;;;8.38;1.48;;;;;;;;;;5069460;28;43354;-23
2023/06/04 09:01:24;;;;;;;3.70;1.17;;;;;;;;;;5068426;28;41097;-26
2023/06/04 09:03:53;;;;;;;4.03;1.15;;;;;;;;;;5069148;28;43428;-27
2023/06/04 09:06:21;;;;;;;6.68;1.40;;;;;;;;;;5068777;28;44773;-29
2023/06/04 09:08:48;;;;;;;7.75;1.60;;;;;;;;;;5066971;28;40030;-28
2023/06/04 09:11:27;;;;;;;3.25;1.30;;;;;;;;;;5067994;28;43230;-27
2023/06/04 09:13:55;;;;;;;2.53;1.25;;;;;;;;;;5067975;28;43179;-27
2023/06/04 09:16:23;;;;;;;4.57;1.20;;;;;;;;;;5068213;28;43340;-29
2023/06/04 09:18:51;;;;;;;7.10;1.30;;;;;;;;;;5068728;28;43128;-26
2023/06/04 09:21:21;;;;;;;7.45;1.50;;;;;;;;;;5067901;28;41166;-26
2023/06/04 09:23:49;;;;;;;5.25;1.30;;;;;;;;;;5067715;28;43412;-27
2023/06/04 09:26:17;;;;;;;1.73;1.00;;;;;;;;;;5084946;28;43438;-26
2023/06/04 09:28:46;;;;;;;5.22;1.20;;;;;;;;;;5072352;28;40451;-26
2023/06/04 09:31:14;;;;;;;3.33;1.30;;;;;;;;;;5067488;28;42926;-26
2023/06/04 09:33:44;;;;;;;1.85;1.00;;;;;;;;;;5067528;28;44563;-26
2023/06/04 09:36:12;;;;;;;3.42;1.13;;;;;;;;;;5065693;28;42744;-27
2023/06/04 09:38:40;;;;;;;6.32;1.10;;;;;;;;;;5067607;28;43190;-26
2023/06/04 09:41:12;;;;;;;2.95;0.88;;;;;;;;;;5049200;28;39209;-26
2023/06/04 09:43:40;;;;;;;3.47;1.15;;;;;;;;;;5066692;28;44029;-27
2023/06/04 09:46:11;;;;;;;3.13;1.05;;;;;;;;;;5067099;28;42502;-27
2023/06/04 09:48:39;;;;;;;4.57;1.23;;;;;;;;;;5072483;28;41722;-26
2023/06/04 09:51:07;;;;;;;2.22;1.00;;;;;;;;;;5067727;28;42944;-27
2023/06/04 09:53:35;;;;;;;5.63;1.00;;;;;;;;;;5066629;28;43675;-26
2023/06/04 09:56:04;;;;;;;2.05;0.95;;;;;;;;;;5067196;28;40531;-27
2023/06/04 09:58:32;;;;;;;2.97;1.10;;;;;;;;;;5065583;28;43600;-27
2023/06/04 10:01:01;;;;;;;4.90;1.10;;;;;;;;;;5065769;28;40261;-33
2023/06/04 10:03:32;;;;;;;2.58;0.70;;;;;;;;;;5067602;28;42581;-32
2023/06/04 10:06:01;;;;;;;6.05;1.17;;;;;;;;;;5066566;28;42916;-32
2023/06/04 10:08:29;;;;;;;2.95;0.80;;;;;;;;;;5067860;28;39647;-29
2023/06/04 10:11:00;;;;;;;4.15;1.10;;;;;;;;;;5066285;28;42731;-28
2023/06/04 10:13:28;;;;;;;5.15;0.98;;;;;;;;;;5066832;28;45410;-28
2023/06/04 10:15:57;;;;;;;6.20;1.00;;;;;;;;;;5067547;28;41294;-28
2023/06/04 10:18:25;;;;;;;4.57;0.80;;;;;;;;;;5067904;28;42707;-27
2023/06/04 10:20:55;;;;;;;6.65;1.02;;;;;;;;;;5066862;28;39828;-27
2023/06/04 10:23:23;;;;;;;9.65;0.85;;;;;;;;;;5067472;28;43006;-28
2023/06/04 10:25:53;;;;;;;7.50;1.00;;;;;;;;;;5080227;28;42863;-29
2023/06/04 10:28:21;;;;;;;7.55;1.10;;;;;;;;;;5086498;28;40889;-24
2023/06/04 10:30:50;;;;;;;2.75;0.90;;;;;;;;;;5087320;28;43856;-30
2023/06/04 10:33:20;;;;;;;12.85;1.85;;;;;;;;;;5071397;28;43837;-43
2023/06/04 10:35:47;;;;;;;27.73;2.58;;;;;;;;;;5073911;28;39868;-41
2023/06/04 10:38:18;;;;;;;7.68;1.90;;;;;;;;;;5081178;28;43649;-41
2023/06/04 10:40:46;;;;;;;17.75;1.63;;;;;;;;;;5060333;28;43207;-38
2023/06/04 10:43:15;;;;;;;21.05;1.58;;;;;;;;;;5087336;28;43146;-37
2023/06/04 10:45:43;;;;;;;11.90;1.60;;;;;;;;;;5070327;28;43960;-35
2023/06/04 10:48:13;;;;;;;6.70;1.00;;;;;;;;;;5069747;28;40318;-36
2023/06/04 10:50:50;;;;;;;7.80;1.40;;;;;;;;;;5066299;28;42826;-33
2023/06/04 10:53:19;;;;;;;14.05;1.40;;;;;;;;;;5063731;28;42824;-35
2023/06/04 10:55:48;;;;;;;13.27;1.38;;;;;;;;;;5066844;28;41194;-34
2023/06/04 10:58:17;;;;;;;7.88;0.90;;;;;;;;;;5066746;28;42847;-40
2023/06/04 11:00:48;;;;;;;3.70;1.02;;;;;;;;;;5065347;28;43923;-40
2023/06/04 11:03:17;;;;;;;2.97;1.10;;;;;;;;;;5048404;28;39112;-39
2023/06/04 11:05:45;;;;;;;5.05;1.08;;;;;;;;;;5066399;28;43428;-39
2023/06/04 11:08:14;;;;;;;2.42;1.10;;;;;;;;;;5067102;28;41148;-38
2023/06/04 11:10:43;;;;;;;3.83;1.63;;;;;;;;;;5066826;28;43204;-38
2023/06/04 11:13:11;;;;;;;8.23;1.13;;;;;;;;;;5064988;28;43070;-37
2023/06/04 11:15:40;;;;;;;3.63;1.15;;;;;;;;;;5050680;28;38843;-35
2023/06/04 11:18:10;;;;;;;4.60;1.10;;;;;;;;;;5072007;28;43560;-37
2023/06/04 11:20:38;;;;;;;4.80;1.23;;;;;;;;;;5066479;28;43582;-39
2023/06/04 11:23:05;;;;;;;2.78;1.00;;;;;;;;;;5073729;28;41295;-37
2023/06/04 11:25:34;;;;;;;5.47;1.02;;;;;;;;;;5066935;28;42812;-39
2023/06/04 11:28:03;;;;;;;2.53;1.15;;;;;;;;;;5066584;28;40072;-37
2023/06/04 11:30:31;;;;;;;2.50;0.88;;;;;;;;;;5070300;28;43539;-35
2023/06/04 11:33:02;;;;;;;1.58;0.90;;;;;;;;;;5066258;28;44315;-37
2023/06/04 11:35:30;;;;;;;3.60;1.02;;;;;;;;;;5065405;28;41272;-37
2023/06/04 11:37:58;;;;;;;3.13;1.27;;;;;;;;;;5065954;28;41731;-35
2023/06/04 11:40:27;;;;;;;2.33;0.90;;;;;;;;;;5066071;28;43367;-36
2023/06/04 11:42:55;;;;;;;2.30;0.90;;;;;;;;;;5064447;28;41265;-35
2023/06/04 11:45:25;;;;;;;0.98;0.80;;;;;;;;;;5074617;28;42587;-39
2023/06/04 11:47:53;;;;;;;1.13;0.80;;;;;;;;;;5069162;28;42266;-37
2023/06/04 11:50:21;;;;;;;2.03;0.98;;;;;;;;;;5069828;28;42503;-38
2023/06/04 11:52:49;;;;;;;3.05;1.02;;;;;;;;;;5073125;28;44407;-38
2023/06/04 11:55:20;;;;;;;3.85;1.00;;;;;;;;;;5068872;28;40301;-33
2023/06/04 11:57:49;;;;;;;2.42;1.20;;;;;;;;;;5068191;28;43185;-36
2023/06/04 12:00:17;;;;;;;1.58;0.75;;;;;;;;;;5071238;28;43414;-32
2023/06/04 12:02:55;;;;;;;2.95;1.00;;;;;;;;;;5069861;28;40326;-37
2023/06/04 12:05:24;;;;;;;3.33;0.95;;;;;;;;;;5066112;28;42798;-37
2023/06/04 12:07:52;;;;;;;1.42;0.82;;;;;;;;;;5072333;28;43413;-35
2023/06/04 12:10:21;;;;;;;1.95;1.05;;;;;;;;;;5068706;28;42586;-37
2023/06/04 12:12:54;;;;;;;1.85;1.10;;;;;;;;;;5069386;28;42965;-37
2023/06/04 12:15:22;;;;;;;1.55;0.95;;;;;;;;;;5072104;28;40202;-38
2023/06/04 12:17:51;;;;;;;2.03;1.10;;;;;;;;;;5076041;28;42841;-35
2023/06/04 12:20:28;;;;;;;2.97;1.20;;;;;;;;;;5069599;28;43640;-35
2023/06/04 12:22:56;;;;;;;4.93;1.13;;;;;;;;;;5051256;28;38232;-37
2023/06/04 12:25:24;;;;;;;1.30;0.70;;;;;;;;;;5068396;28;42523;-39
2023/06/04 12:27:52;;;;;;;1.25;0.85;;;;;;;;;;5086580;28;43498;-37
2023/06/04 12:30:20;;;;;;;1.35;0.88;;;;;;;;;;5090729;28;41252;-35
2023/06/04 12:32:48;;;;;;;1.55;0.98;;;;;;;;;;5076805;28;43221;-33
2023/06/04 12:35:16;;;;;;;3.75;1.17;;;;;;;;;;5089970;28;40064;-37
2023/06/04 12:37:46;;;;;;;1.30;0.95;;;;;;;;;;5089006;28;43535;-38
2023/06/04 12:40:13;;;;;;;2.42;0.80;;;;;;;;;;5089219;28;43358;-39
2023/06/04 12:42:42;;;;;;;1.95;1.02;;;;;;;;;;5089594;28;39908;-34
2023/06/04 12:45:11;;;;;;;2.63;0.88;;;;;;;;;;5075232;28;42712;-40
2023/06/04 12:47:39;;;;;;;1.30;0.82;;;;;;;;;;5081458;28;43360;-38
2023/06/04 12:50:07;;;;;;;3.08;0.90;;;;;;;;;;5088914;28;41370;-40
2023/06/04 12:52:35;;;;;;;1.67;1.17;;;;;;;;;;5077536;28;42025;-40
2023/06/04 12:55:05;;;;;;;1.05;0.77;;;;;;;;;;5086972;28;40322;-38
2023/06/04 12:57:33;;;;;;;2.90;0.90;;;;;;;;;;5088788;28;42832;-38
2023/06/04 13:00:01;;;;;;;2.72;1.00;;;;;;;;;;5087985;28;44451;-34
2023/06/04 13:02:29;;;;;;;1.15;0.93;;;;;;;;;;5089670;28;41360;-34
2023/06/04 13:04:57;;;;;;;1.25;0.70;;;;;;;;;;5088461;28;43285;-36
2023/06/04 13:07:25;;;;;;;2.15;1.20;;;;;;;;;;5089156;28;43609;-34
2023/06/04 13:09:55;;;;;;;1.92;1.00;;;;;;;;;;5089234;28;39784;-38
2023/06/04 13:12:24;;;;;;;1.23;1.02;;;;;;;;;;5088790;28;41509;-37
2023/06/04 13:14:52;;;;;;;2.33;1.10;;;;;;;;;;5088921;28;43763;-39
2023/06/04 13:17:20;;;;;;;2.13;0.82;;;;;;;;;;5074859;28;42455;-36
2023/06/04 13:19:50;;;;;;;1.30;1.00;;;;;;;;;;5088742;28;44290;-32
2023/06/04 13:22:18;;;;;;;1.55;1.10;;;;;;;;;;5088275;28;40963;-38
2023/06/04 13:24:46;;;;;;;2.03;1.15;;;;;;;;;;5089289;28;41542;-35
2023/06/04 13:27:14;;;;;;;1.65;1.00;;;;;;;;;;5076707;28;43946;-40
2023/06/04 13:29:43;;;;;;;1.10;0.82;;;;;;;;;;5087121;28;40931;-33
2023/06/04 13:32:11;;;;;;;3.25;0.98;;;;;;;;;;5088099;28;42786;-36
2023/06/04 13:34:40;;;;;;;1.67;1.10;;;;;;;;;;5084209;28;43506;-32
2023/06/04 13:37:10;;;;;;;4.57;1.23;;;;;;;;;;5077622;28;40996;-40
2023/06/04 13:39:38;;;;;;;2.47;1.05;;;;;;;;;;5085380;28;44087;-37
2023/06/04 13:42:07;;;;;;;1.60;1.10;;;;;;;;;;5078434;28;41363;-37
2023/06/04 13:44:35;;;;;;;2.90;0.98;;;;;;;;;;5082756;28;42575;-37
2023/06/04 13:47:04;;;;;;;1.50;0.95;;;;;;;;;;5083815;28;43534;-37
2023/06/04 13:49:33;;;;;;;1.15;0.95;;;;;;;;;;5074188;28;40691;-38
2023/06/04 13:52:01;;;;;;;1.52;1.02;;;;;;;;;;5077807;28;42471;-33
2023/06/04 13:54:29;;;;;;;1.20;1.10;;;;;;;;;;5080943;28;43794;-33
2023/06/04 13:56:57;;;;;;;1.52;1.00;;;;;;;;;;5088106;28;40288;-34
2023/06/04 13:59:25;;;;;;;1.48;1.00;;;;;;;;;;5088437;28;43409;-36
2023/06/04 14:01:52;;;;;;;1.38;0.98;;;;;;;;;;5087917;28;40685;-37
2023/06/04 14:04:22;;;;;;;1.25;1.13;;;;;;;;;;5087803;28;42795;-37
2023/06/04 14:06:50;;;;;;;1.55;1.00;;;;;;;;;;5086896;28;43013;-38
2023/06/04 14:09:18;;;;;;;1.60;1.00;;;;;;;;;;5074108;28;40128;-31
2023/06/04 14:11:50;;;;;;;1.40;1.02;;;;;;;;;;5056723;28;42409;-34
2023/06/04 14:14:18;;;;;;;1.33;1.10;;;;;;;;;;5071947;28;43168;-33
2023/06/04 14:16:46;;;;;;;1.85;1.33;;;;;;;;;;5071723;28;39971;-35
2023/06/04 14:19:13;;;;;;;3.75;1.15;;;;;;;;;;5073552;28;43445;-35
2023/06/04 14:21:43;;;;;;;2.17;1.50;;;;;;;;;;5067899;28;41319;-34
2023/06/04 14:24:11;;;;;;;3.38;1.00;;;;;;;;;;5067143;28;43459;-35
2023/06/04 14:26:39;;;;;;;1.95;1.42;;;;;;;;;;5067818;28;43644;-36
2023/06/04 14:29:07;;;;;;;2.08;1.13;;;;;;;;;;5067456;28;41724;-37
2023/06/04 14:31:35;;;;;;;4.07;1.20;;;;;;;;;;5067227;28;43781;-37
2023/06/04 14:34:03;;;;;;;2.95;1.23;;;;;;;;;;5072516;28;44128;-33
2023/06/04 14:36:31;;;;;;;1.90;1.30;;;;;;;;;;5067874;28;40395;-38
2023/06/04 14:39:00;;;;;;;3.22;1.13;;;;;;;;;;5066283;28;43347;-39
2023/06/04 14:41:28;;;;;;;3.72;1.38;;;;;;;;;;5073626;28;43772;-34
2023/06/04 14:43:56;;;;;;;4.82;1.40;;;;;;;;;;5080307;28;43796;-38
2023/06/04 14:46:25;;;;;;;2.63;1.40;;;;;;;;;;5069778;28;44568;-36
2023/06/04 14:48:53;;;;;;;1.40;1.08;;;;;;;;;;5067280;28;40133;-37
2023/06/04 14:51:21;;;;;;;1.52;1.30;;;;;;;;;;5067416;28;42658;-37
2023/06/04 14:53:49;;;;;;;1.48;1.10;;;;;;;;;;5066289;28;43003;-33